createdAt,value
2023-03-21T00:04:44.549Z,14.43
2023-03-21T00:10:04.784Z,14.48
2023-03-21T00:15:09.455Z,15.45
2023-03-21T00:20:16.201Z,14.93
2023-03-21T00:25:20.528Z,16.02
2023-03-21T00:30:23.930Z,15.75
2023-03-21T00:40:51.851Z,16.95
2023-03-21T00:45:54.674Z,17.77
2023-03-21T00:50:59.353Z,18.45
2023-03-21T00:56:03.514Z,19.33
2023-03-21T01:01:09.328Z,19.80
2023-03-21T01:06:13.777Z,20.20
2023-03-21T01:11:20.556Z,20.58
2023-03-21T01:16:23.322Z,19.85
2023-03-21T01:21:26.339Z,20.63
2023-03-21T01:26:30.777Z,18.65
2023-03-21T01:31:33.737Z,19.60
2023-03-21T01:36:36.944Z,20.27
2023-03-21T01:41:45.037Z,20.90
2023-03-21T01:47:11.180Z,19.63
2023-03-21T01:52:39.054Z,19.98
2023-03-21T01:58:07.312Z,20.98
2023-03-21T02:03:52.126Z,20.90
2023-03-21T02:09:10.784Z,21.88
2023-03-21T02:14:26.624Z,20.10
2023-03-21T02:20:12.856Z,20.77
2023-03-21T02:26:00.972Z,22.48
2023-03-21T02:31:19.891Z,23.58
2023-03-21T02:36:31.545Z,22.83
2023-03-21T02:41:46.714Z,22.30
2023-03-21T02:47:03.170Z,22.35
2023-03-21T02:52:17.154Z,22.65
2023-03-21T02:57:40.053Z,23.77
2023-03-21T03:02:47.424Z,22.08
2023-03-21T03:08:17.270Z,22.58
2023-03-21T03:13:36.641Z,23.55
2023-03-21T03:18:46.242Z,21.95
2023-03-21T03:23:52.348Z,23.17
2023-03-21T03:29:01.812Z,23.02
2023-03-21T03:34:09.048Z,23.83
2023-03-21T03:39:16.867Z,24.85
2023-03-21T03:44:28.392Z,22.83
2023-03-21T03:49:43.122Z,22.52
2023-03-21T03:54:48.730Z,22.35
2023-03-21T03:59:53.891Z,21.58
2023-03-21T04:05:21.230Z,23.10
2023-03-21T04:10:24.256Z,23.08
2023-03-21T04:15:28.776Z,22.88
2023-03-21T04:20:38.812Z,23.17
2023-03-21T04:25:55.463Z,22.52
2023-03-21T04:31:05.249Z,23.80
2023-03-21T04:36:27.322Z,22.20
2023-03-21T04:41:33.487Z,22.45
2023-03-21T04:46:38.483Z,21.75
2023-03-21T04:51:43.993Z,22.52
2023-03-21T04:56:48.535Z,23.83
2023-03-21T05:01:52.868Z,24.45
2023-03-21T05:06:55.879Z,24.17
2023-03-21T05:11:58.595Z,23.92
2023-03-21T05:17:05.122Z,23.70
2023-03-21T05:22:10.803Z,23.38
2023-03-21T05:27:26.083Z,22.00
2023-03-21T05:32:30.449Z,21.38
2023-03-21T05:37:33.549Z,21.48
2023-03-21T05:42:36.590Z,21.75
2023-03-21T05:47:49.498Z,22.75
2023-03-21T05:52:52.912Z,22.70
2023-03-21T05:57:56.030Z,22.77
2023-03-21T06:03:04.712Z,23.10
2023-03-21T06:08:22.488Z,23.50
2023-03-21T06:13:26.162Z,21.92
2023-03-21T06:18:30.728Z,22.65
2023-03-21T06:23:56.507Z,21.70
2023-03-21T06:28:59.454Z,22.02
2023-03-21T06:34:03.934Z,22.10
2023-03-21T06:39:08.751Z,21.27
2023-03-21T06:44:14.829Z,21.02
2023-03-21T06:49:27.878Z,20.58
2023-03-21T06:54:34.640Z,19.88
2023-03-21T06:59:44.703Z,23.15
2023-03-21T07:04:54.942Z,21.33
2023-03-21T07:10:00.421Z,19.17
2023-03-21T07:15:09.439Z,20.40
2023-03-21T07:20:14.858Z,20.15
2023-03-21T07:25:20.026Z,20.33
2023-03-21T07:30:23.516Z,20.02
2023-03-21T07:35:27.681Z,22.15
2023-03-21T07:40:30.799Z,21.38
2023-03-21T07:45:33.937Z,23.58
2023-03-21T07:50:38.031Z,23.77
2023-03-21T07:55:43.208Z,24.67
2023-03-21T08:00:46.233Z,25.00
2023-03-21T08:05:50.691Z,24.00
2023-03-21T08:10:53.515Z,25.23
2023-03-21T08:15:56.242Z,24.55
2023-03-21T08:21:00.446Z,26.33
2023-03-21T08:26:03.441Z,25.85
2023-03-21T08:31:08.952Z,22.98
2023-03-21T08:36:13.631Z,22.95
2023-03-21T08:41:16.560Z,24.02
2023-03-21T08:46:19.325Z,22.85
2023-03-21T08:51:23.537Z,23.13
2023-03-21T08:56:26.584Z,22.45
2023-03-21T09:01:29.711Z,24.30
2023-03-21T09:06:34.101Z,23.27
2023-03-21T09:11:37.173Z,22.83
2023-03-21T09:16:40.198Z,23.40
2023-03-21T09:21:44.703Z,22.85
2023-03-21T09:26:53.466Z,23.88
2023-03-21T09:31:57.595Z,23.10
2023-03-21T09:37:02.286Z,21.70
2023-03-21T09:42:19.658Z,21.33
2023-03-21T09:47:25.077Z,20.48
2023-03-21T09:52:34.672Z,19.25
2023-03-21T09:57:41.770Z,20.05
2023-03-21T10:02:47.203Z,19.65
2023-03-21T10:07:57.906Z,20.20
2023-03-21T10:13:00.780Z,17.23
2023-03-21T10:18:07.435Z,17.98
2023-03-21T10:23:16.794Z,17.40
2023-03-21T10:28:22.120Z,16.77
2023-03-21T10:33:28.697Z,18.05
2023-03-21T10:38:33.020Z,15.70
2023-03-21T10:43:38.726Z,17.23
2023-03-21T10:48:46.162Z,17.17
2023-03-21T10:53:55.953Z,17.10
2023-03-21T10:59:00.961Z,18.30
2023-03-21T11:04:09.484Z,16.90
2023-03-21T11:09:17.528Z,18.55
2023-03-21T11:14:34.350Z,18.90
2023-03-21T11:19:37.460Z,19.13
2023-03-21T11:24:42.914Z,17.77
2023-03-21T11:29:48.866Z,18.13
2023-03-21T11:34:57.752Z,17.77
2023-03-21T11:40:19.198Z,18.75
2023-03-21T11:45:24.433Z,18.73
2023-03-21T11:50:32.610Z,17.63
2023-03-21T11:55:51.242Z,15.85
2023-03-21T12:01:03.302Z,17.52
2023-03-21T12:06:17.398Z,15.55
2023-03-21T12:11:30.545Z,18.55
2023-03-21T12:16:45.229Z,13.77
2023-03-21T12:22:00.169Z,13.15
2023-03-21T12:27:12.669Z,14.23
2023-03-21T12:32:26.238Z,14.15
2023-03-21T12:37:38.399Z,12.00
2023-03-21T12:42:59.120Z,11.02
2023-03-21T12:48:09.181Z,11.30
2023-03-21T12:53:36.038Z,11.13
2023-03-21T12:58:48.309Z,11.48
2023-03-21T13:03:59.266Z,13.57
2023-03-21T13:09:07.953Z,12.63
2023-03-21T13:14:18.743Z,10.15
2023-03-21T13:19:29.852Z,10.68
2023-03-21T13:24:39.229Z,11.02
2023-03-21T13:29:49.736Z,11.30
2023-03-21T13:34:57.202Z,11.30
2023-03-21T13:40:09.368Z,10.02
2023-03-21T13:45:26.537Z,10.73
2023-03-21T13:50:37.490Z,9.95
2023-03-21T13:55:43.199Z,9.52
2023-03-21T14:01:07.875Z,10.15
2023-03-21T14:06:12.276Z,10.95
2023-03-21T14:11:18.756Z,10.23
2023-03-21T14:16:28.519Z,10.77
2023-03-21T14:21:33.869Z,10.38
2023-03-21T14:26:41.172Z,10.50
2023-03-21T14:31:46.836Z,10.35
2023-03-21T14:36:57.785Z,10.63
2023-03-21T14:42:05.305Z,10.85
2023-03-21T14:47:19.046Z,11.85
2023-03-21T14:52:25.753Z,12.18
2023-03-21T14:57:31.775Z,11.65
2023-03-21T15:02:39.155Z,13.50
2023-03-21T15:07:42.152Z,11.35
2023-03-21T15:12:52.398Z,10.70
2023-03-21T15:18:01.606Z,20.98
2023-03-21T15:23:12.201Z,10.60
2023-03-21T15:28:15.372Z,10.73
2023-03-21T15:33:20.588Z,9.88
2023-03-21T15:38:29.306Z,9.63
2023-03-21T15:43:40.841Z,9.68
2023-03-21T15:48:45.827Z,8.77
2023-03-21T15:53:49.700Z,8.98
2023-03-21T15:58:53.778Z,8.55
2023-03-21T16:03:59.705Z,9.35
2023-03-21T16:09:14.059Z,9.07
2023-03-21T16:14:17.576Z,8.48
2023-03-21T16:19:22.004Z,9.20
2023-03-21T16:24:24.759Z,8.73
2023-03-21T16:29:27.480Z,8.70
2023-03-21T16:34:32.160Z,7.78
2023-03-21T16:39:34.939Z,7.20
2023-03-21T16:44:39.131Z,8.90
2023-03-21T16:49:43.565Z,9.75
2023-03-21T16:54:46.287Z,9.20
2023-03-21T16:59:49.078Z,7.90
2023-03-21T17:04:53.341Z,8.65
2023-03-21T17:09:56.321Z,9.38
2023-03-21T17:14:59.044Z,9.02
2023-03-21T17:20:11.227Z,8.68
2023-03-21T17:25:14.076Z,9.48
2023-03-21T17:30:25.294Z,10.57
2023-03-21T17:35:29.838Z,10.32
2023-03-21T17:40:34.486Z,10.45
2023-03-21T17:45:37.261Z,10.75
2023-03-21T17:50:41.429Z,10.57
2023-03-21T17:55:44.299Z,22.00
2023-03-21T18:00:47.418Z,13.15
2023-03-21T18:05:52.026Z,15.57
2023-03-21T18:10:54.770Z,12.88
2023-03-21T18:15:59.785Z,12.40
2023-03-21T18:21:04.295Z,17.10
2023-03-21T18:26:07.928Z,12.52
2023-03-21T18:31:19.429Z,12.65
2023-03-21T18:36:26.330Z,12.13
2023-03-21T18:41:30.993Z,13.50
2023-03-21T18:46:33.920Z,12.65
2023-03-21T18:51:38.091Z,12.85
2023-03-21T19:02:06.038Z,11.32
2023-03-21T19:07:10.394Z,12.10
2023-03-21T19:12:13.229Z,12.45
2023-03-21T19:18:07.183Z,11.55
2023-03-21T19:22:40.447Z,13.30
2023-03-21T19:27:43.853Z,12.75
2023-03-21T19:32:47.118Z,11.52
2023-03-21T19:37:51.368Z,11.85
2023-03-21T19:42:54.169Z,11.50
2023-03-21T19:47:58.338Z,11.68
2023-03-21T19:53:02.442Z,11.95
2023-03-21T19:58:06.031Z,13.50
2023-03-21T20:03:09.713Z,12.85
2023-03-21T20:08:14.442Z,11.32
2023-03-21T20:13:17.238Z,10.07
2023-03-21T20:18:20.630Z,10.52
2023-03-21T20:23:24.762Z,10.15
2023-03-21T20:28:28.961Z,9.65
2023-03-21T20:33:32.800Z,9.82
2023-03-21T20:38:39.454Z,10.05
2023-03-21T20:49:06.575Z,9.52
2023-03-21T20:54:11.149Z,8.52
2023-03-21T20:59:23.200Z,9.32
2023-03-21T21:04:47.227Z,9.23
2023-03-21T21:09:55.482Z,8.82
2023-03-21T21:14:58.264Z,8.98
2023-03-21T21:20:12.214Z,8.57
2023-03-21T21:25:17.390Z,9.27
2023-03-21T21:30:29.942Z,9.38
2023-03-21T21:35:33.523Z,9.88
2023-03-21T21:40:38.044Z,9.20
2023-03-21T21:45:41.595Z,9.00
2023-03-21T21:50:44.523Z,8.93
2023-03-21T21:55:49.486Z,9.10
2023-03-21T22:00:52.292Z,9.80
2023-03-21T22:06:02.804Z,9.52
2023-03-21T22:11:07.565Z,10.60
2023-03-21T22:16:11.146Z,8.85
2023-03-21T22:21:14.046Z,8.88
2023-03-21T22:26:18.226Z,7.82
2023-03-21T22:31:22.579Z,8.35
2023-03-21T22:36:25.419Z,8.60
2023-03-21T22:41:29.540Z,7.90
2023-03-21T22:46:32.248Z,7.22
2023-03-21T22:51:35.198Z,7.50
2023-03-21T22:56:39.343Z,7.88
2023-03-21T23:01:42.097Z,8.13
2023-03-21T23:06:46.131Z,8.23
2023-03-21T23:11:50.282Z,8.52
2023-03-21T23:16:54.796Z,8.75
2023-03-21T23:21:58.534Z,9.25
2023-03-21T23:27:02.937Z,8.80
2023-03-21T23:32:06.185Z,9.38
2023-03-21T23:37:09.322Z,8.77
2023-03-21T23:42:13.604Z,10.35
2023-03-21T23:47:16.646Z,9.95
2023-03-21T23:52:19.787Z,9.90
2023-03-21T23:57:24.088Z,10.25
